Time;durP1;ratioP1;P1;durP2;ratioP2;P2;SDS_P1;SDS_P2;PMS_P1;PMS_P2;Temp;Humidity;BMP_temperature;BMP_pressure;BME280_temperature;BME280_humidity;BME280_pressure;Samples;Min_cycle;Max_cycle;Signal;HPM_P1;HPM_P2
2023/04/08 00:01:00;;;;;;;20.20;15.38;;;;;;;8.94;53.42;99610.56;5032516;28;20029;-84
2023/04/08 00:03:26;;;;;;;21.23;14.90;;;;;;;8.84;55.35;99602.47;5029159;28;20120;-84
2023/04/08 00:05:51;;;;;;;19.88;15.52;;;;;;;8.97;54.79;99611.88;5013023;28;20117;-83
2023/04/08 00:08:17;;;;;;;21.83;16.83;;;;;;;9.00;54.46;99611.25;5029447;28;20026;-83
2023/04/08 00:10:42;;;;;;;24.30;16.67;;;;;;;8.77;54.58;99608.50;5045929;28;20534;-83
2023/04/08 00:13:08;;;;;;;29.70;22.38;;;;;;;8.54;54.83;99618.88;5049786;28;20032;-83
2023/04/08 00:15:33;;;;;;;30.77;21.65;;;;;;;8.66;55.35;99609.91;5032649;28;20024;-83
2023/04/08 00:17:59;;;;;;;29.83;20.92;;;;;;;8.77;55.09;99604.91;5032643;28;20027;-84
2023/04/08 00:20:24;;;;;;;28.38;19.25;;;;;;;8.80;54.60;99612.63;5032596;28;20033;-84
2023/04/08 00:22:50;;;;;;;29.80;20.83;;;;;;;8.90;53.95;99614.31;5032665;28;20411;-83
2023/04/08 00:25:15;;;;;;;27.50;19.10;;;;;;;9.04;54.31;99620.59;5031804;28;20021;-84
2023/04/08 00:27:41;;;;;;;32.88;21.58;;;;;;;8.99;54.87;99602.06;5031825;28;20052;-84
2023/04/08 00:30:07;;;;;;;37.75;22.80;;;;;;;8.97;55.94;99609.91;5036079;28;20013;-83
2023/04/08 00:32:32;;;;;;;35.97;23.50;;;;;;;9.00;55.84;99600.06;5048986;28;20026;-84
2023/04/08 00:34:58;;;;;;;38.75;24.95;;;;;;;9.07;55.83;99607.97;5016167;28;20080;-84
2023/04/08 00:37:23;;;;;;;40.05;26.20;;;;;;;9.05;55.89;99611.13;5016149;28;20026;-83
2023/04/08 00:39:50;;;;;;;42.10;25.80;;;;;;;8.95;54.57;99605.81;5016278;28;20029;-84
2023/04/08 00:42:16;;;;;;;44.40;26.35;;;;;;;8.95;54.40;99612.19;5027405;28;20032;-84
2023/04/08 00:44:41;;;;;;;42.58;26.55;;;;;;;9.09;54.44;99617.69;5035917;28;20037;-84
2023/04/08 00:47:11;;;;;;;45.03;25.30;;;;;;;9.10;53.73;99624.91;5035585;28;20067;-84
2023/04/08 00:49:37;;;;;;;35.90;23.58;;;;;;;9.01;54.15;99623.22;5035393;28;20129;-84
2023/04/08 00:52:03;;;;;;;38.72;23.88;;;;;;;9.07;54.08;99631.16;5035664;28;20032;-84
2023/04/08 00:54:30;;;;;;;31.33;21.65;;;;;;;9.07;53.72;99631.16;5053617;28;20033;-84
2023/04/08 00:56:58;;;;;;;31.15;21.13;;;;;;;8.97;53.20;99621.06;5035640;28;20120;-84
2023/04/08 00:59:25;;;;;;;44.63;25.15;;;;;;;8.95;53.62;99617.78;5052067;28;20082;-84
2023/04/08 01:02:25;;;;;;;60.80;33.03;;;;;;;8.96;53.88;99626.97;5035136;28;20438;-83
2023/04/08 01:04:56;;;;;;;38.65;23.90;;;;;;;8.77;56.46;99630.81;5030068;28;20048;-84
2023/04/08 01:07:35;;;;;;;28.90;18.67;;;;;;;8.50;58.70;99640.97;5035290;28;20040;-84
2023/04/08 01:10:29;;;;;;;22.13;15.75;;;;;;;8.34;57.77;99636.91;5053047;28;20042;-84
2023/04/08 01:12:57;;;;;;;20.20;15.35;;;;;;;8.26;57.82;99630.91;5034107;28;20022;-84
2023/04/08 01:15:25;;;;;;;23.45;16.92;;;;;;;8.23;58.43;99641.88;5034749;28;20029;-84
2023/04/08 01:17:54;;;;;;;23.67;16.55;;;;;;;8.29;58.46;99635.06;5035111;28;20029;-84
2023/04/08 01:20:21;;;;;;;28.65;18.50;;;;;;;8.18;58.83;99628.88;5035074;28;20060;-84
2023/04/08 01:22:59;;;;;;;27.17;18.25;;;;;;;8.12;58.60;99652.44;5035207;28;20522;-84
2023/04/08 01:25:33;;;;;;;26.10;18.58;;;;;;;8.06;59.02;99653.69;5035358;28;20029;-84
2023/04/08 01:28:06;;;;;;;34.50;18.45;;;;;;;8.03;59.92;99659.88;5051324;28;20082;-84
2023/04/08 01:30:33;;;;;;;27.60;18.13;;;;;;;8.09;59.75;99655.88;5033835;28;20024;-84
2023/04/08 01:33:01;;;;;;;22.85;16.48;;;;;;;7.93;59.51;99655.38;5034471;28;20400;-84
2023/04/08 01:35:27;;;;;;;21.52;15.98;;;;;;;8.04;58.70;99662.38;5034746;28;20118;-84
2023/04/08 01:37:54;;;;;;;25.13;17.00;;;;;;;8.05;57.99;99654.81;5052563;28;20438;-84
2023/04/08 01:40:19;;;;;;;26.80;16.30;;;;;;;7.84;58.79;99658.91;5033120;28;20136;-84
2023/04/08 01:42:48;;;;;;;26.95;14.85;;;;;;;7.83;57.85;99664.75;5033822;28;20537;-84
2023/04/08 01:45:15;;;;;;;24.30;15.32;;;;;;;7.78;57.89;99667.69;5052016;28;20128;-84
2023/04/08 01:47:43;;;;;;;25.80;16.55;;;;;;;7.73;58.83;99661.09;5014853;28;20068;-84
2023/04/08 01:50:09;;;;;;;21.25;16.15;;;;;;;7.64;60.44;99659.31;5050974;28;20424;-84
2023/04/08 01:52:37;;;;;;;26.52;15.60;;;;;;;7.64;61.85;99664.88;5034682;28;20029;-84
2023/04/08 01:55:03;;;;;;;26.83;17.98;;;;;;;7.44;63.63;99656.66;5034616;28;20487;-84
2023/04/08 01:57:32;;;;;;;26.42;17.60;;;;;;;7.46;64.14;99675.84;5033680;28;20068;-84
2023/04/08 02:00:08;;;;;;;22.98;17.20;;;;;;;7.30;65.63;99666.97;5034211;28;20125;-84
2023/04/08 02:02:36;;;;;;;28.92;18.65;;;;;;;7.10;66.74;99673.75;5033349;28;20503;-84
2023/04/08 02:05:02;;;;;;;27.27;18.75;;;;;;;7.03;66.89;99679.72;5034416;28;20120;-85
2023/04/08 02:07:28;;;;;;;31.10;19.45;;;;;;;6.97;68.04;99681.75;5050166;28;20036;-84
2023/04/08 02:09:55;;;;;;;26.98;18.52;;;;;;;7.08;68.41;99687.94;5024663;28;20021;-85
2023/04/08 02:12:22;;;;;;;30.05;17.90;;;;;;;7.05;68.59;99679.38;5047664;28;20033;-84
2023/04/08 02:14:48;;;;;;;45.90;19.85;;;;;;;6.96;69.29;99669.00;5015175;28;20025;-85
2023/04/08 02:17:24;;;;;;;28.30;19.48;;;;;;;7.02;69.75;99678.88;5016646;28;20036;-85
2023/04/08 02:19:57;;;;;;;34.40;19.33;;;;;;;7.18;69.57;99694.47;5049823;28;20032;-84
2023/04/08 02:22:41;;;;;;;33.25;20.20;;;;;;;7.07;70.46;99694.66;5033938;28;20033;-85
2023/04/08 02:25:14;;;;;;;32.17;18.90;;;;;;;7.02;71.45;99687.22;5030789;28;20469;-85
2023/04/08 02:27:41;;;;;;;32.72;20.73;;;;;;;6.99;72.29;99673.09;5022831;28;20067;-85
2023/04/08 02:30:09;;;;;;;28.02;18.95;;;;;;;6.98;73.00;99682.56;5051879;28;20036;-85
2023/04/08 02:32:35;;;;;;;33.60;19.90;;;;;;;6.96;73.20;99671.78;5033969;28;20079;-85
2023/04/08 02:35:04;;;;;;;33.55;21.90;;;;;;;7.01;73.70;99681.97;5033635;28;20447;-84
2023/04/08 02:37:33;;;;;;;31.92;20.67;;;;;;;6.99;73.65;99684.22;5016794;28;20045;-85
2023/04/08 02:39:58;;;;;;;26.08;18.45;;;;;;;7.00;73.32;99686.72;5014979;28;20495;-85
2023/04/08 02:42:24;;;;;;;25.70;18.77;;;;;;;7.07;73.63;99688.28;5032998;28;20142;-85
2023/04/08 02:44:50;;;;;;;30.48;21.45;;;;;;;6.97;74.42;99686.47;5033788;28;20021;-85
2023/04/08 02:47:15;;;;;;;31.05;20.35;;;;;;;7.03;73.95;99685.28;5033768;28;20052;-85
2023/04/08 02:49:41;;;;;;;30.40;20.58;;;;;;;7.00;74.62;99699.81;5033750;28;20021;-84
2023/04/08 02:52:06;;;;;;;30.15;20.70;;;;;;;6.95;74.68;99675.69;5032380;28;20020;-84
2023/04/08 02:54:32;;;;;;;32.45;20.23;;;;;;;6.98;74.85;99680.63;5033382;28;20032;-84
2023/04/08 02:56:57;;;;;;;33.95;20.20;;;;;;;7.13;74.79;99699.00;5029120;28;20060;-85
2023/04/08 02:59:23;;;;;;;30.27;20.88;;;;;;;7.26;74.37;99716.03;5030377;28;20025;-85
2023/04/08 03:01:48;;;;;;;30.17;19.45;;;;;;;7.10;75.14;99691.25;5048850;28;20077;-84
2023/04/08 03:04:14;;;;;;;30.80;19.15;;;;;;;7.21;75.13;99702.19;5050881;28;20484;-85
2023/04/08 03:06:39;;;;;;;32.20;21.67;;;;;;;7.19;74.85;99704.47;5033609;28;20091;-84
2023/04/08 03:09:05;;;;;;;34.45;21.55;;;;;;;7.14;75.05;99708.16;5032526;28;20078;-84
2023/04/08 03:11:31;;;;;;;30.85;20.80;;;;;;;7.06;76.14;99706.91;5033335;28;20422;-84
2023/04/08 03:13:57;;;;;;;31.90;21.70;;;;;;;7.12;77.02;99716.00;5032619;28;20036;-84
2023/04/08 03:16:22;;;;;;;36.10;21.27;;;;;;;7.17;76.13;99713.09;5033317;28;20496;-84
2023/04/08 03:18:51;;;;;;;31.30;21.65;;;;;;;6.92;77.76;99694.94;5033255;28;20078;-85
2023/04/08 03:21:17;;;;;;;29.33;20.77;;;;;;;6.92;77.29;99692.16;5033231;28;20029;-85
2023/04/08 03:23:43;;;;;;;35.17;21.60;;;;;;;6.83;78.68;99701.19;5032256;28;20409;-85
2023/04/08 03:26:09;;;;;;;36.10;21.42;;;;;;;6.59;79.98;99685.44;5048586;28;20021;-85
2023/04/08 03:28:34;;;;;;;36.17;23.95;;;;;;;6.68;80.18;99696.69;5029303;28;20033;-85
2023/04/08 03:31:04;;;;;;;32.90;21.80;;;;;;;6.73;79.01;99693.84;5063660;28;20025;-85
2023/04/08 03:33:30;;;;;;;33.60;21.92;;;;;;;6.71;79.86;99703.63;5033026;28;20499;-85
2023/04/08 03:35:55;;;;;;;36.95;23.77;;;;;;;6.76;79.78;99717.44;5049665;28;20044;-85
2023/04/08 03:38:21;;;;;;;36.70;22.77;;;;;;;6.88;79.88;99717.78;5050863;28;20400;-84
2023/04/08 03:40:46;;;;;;;35.88;23.27;;;;;;;6.90;79.96;99730.56;5032224;28;20135;-85
2023/04/08 03:43:13;;;;;;;33.47;22.75;;;;;;;7.05;79.20;99721.94;5032469;28;20476;-85
2023/04/08 03:45:39;;;;;;;34.42;22.92;;;;;;;6.92;79.59;99717.19;5029800;28;20471;-85
2023/04/08 03:48:05;;;;;;;36.38;24.65;;;;;;;6.94;79.41;99714.91;5031003;28;20030;-85
2023/04/08 03:50:30;;;;;;;41.33;23.50;;;;;;;6.79;81.33;99716.84;5013141;28;20108;-84
2023/04/08 03:52:55;;;;;;;36.05;22.80;;;;;;;6.74;81.24;99701.06;5013337;28;20029;-84
2023/04/08 03:55:22;;;;;;;36.15;23.25;;;;;;;6.82;82.21;99719.00;5014249;28;20037;-85
2023/04/08 03:57:48;;;;;;;38.50;24.23;;;;;;;6.64;83.03;99705.97;5031704;28;20024;-85
2023/04/08 04:00:14;;;;;;;37.58;23.92;;;;;;;6.84;82.36;99727.84;5032934;28;20029;-84
2023/04/08 04:02:39;;;;;;;39.95;24.58;;;;;;;6.86;82.89;99727.56;5033765;28;20491;-84
2023/04/08 04:05:05;;;;;;;36.25;23.95;;;;;;;6.72;83.40;99728.34;5036880;28;20572;-85
2023/04/08 04:07:31;;;;;;;36.15;25.10;;;;;;;6.84;83.50;99736.19;5036502;28;20476;-85
2023/04/08 04:09:56;;;;;;;35.83;24.40;;;;;;;6.85;83.28;99729.50;5036062;28;20039;-85
2023/04/08 04:12:22;;;;;;;39.15;23.77;;;;;;;6.94;82.24;99734.38;5033171;28;20025;-84
2023/04/08 04:14:48;;;;;;;36.38;23.27;;;;;;;6.99;81.78;99740.69;5033109;28;20492;-84
2023/04/08 04:17:14;;;;;;;36.42;23.55;;;;;;;6.91;82.36;99741.38;5036210;28;20118;-84
2023/04/08 04:19:39;;;;;;;39.88;25.77;;;;;;;6.96;82.20;99741.31;5054531;28;20029;-85
2023/04/08 04:22:05;;;;;;;38.55;25.83;;;;;;;6.97;82.71;99740.16;5036405;28;20029;-84
2023/04/08 04:24:30;;;;;;;34.63;23.45;;;;;;;6.83;83.61;99742.88;5036401;28;20411;-85
2023/04/08 04:26:56;;;;;;;38.08;25.05;;;;;;;6.67;84.37;99722.84;5035765;28;20039;-85
2023/04/08 04:29:21;;;;;;;41.53;25.02;;;;;;;6.73;85.64;99740.28;5036263;28;20021;-85
2023/04/08 04:31:47;;;;;;;34.55;23.35;;;;;;;6.76;84.98;99738.84;5035335;28;20040;-85
2023/04/08 04:34:12;;;;;;;41.60;25.63;;;;;;;6.58;86.42;99736.63;5053721;28;20423;-85
2023/04/08 04:36:38;;;;;;;37.83;25.23;;;;;;;6.63;86.42;99735.72;5036132;28;20067;-85
2023/04/08 04:39:03;;;;;;;52.53;28.83;;;;;;;6.56;86.73;99736.09;5036030;28;20404;-85
2023/04/08 04:41:29;;;;;;;39.88;25.65;;;;;;;6.60;87.42;99734.34;5053290;28;20411;-85
2023/04/08 04:43:54;;;;;;;42.40;25.52;;;;;;;6.58;87.17;99735.81;5036229;28;20036;-85
2023/04/08 04:46:20;;;;;;;40.63;26.77;;;;;;;6.54;87.85;99740.28;5035892;28;20024;-86
2023/04/08 04:48:45;;;;;;;39.53;26.58;;;;;;;6.59;88.04;99748.56;5035544;28;20044;-84
2023/04/08 04:51:11;;;;;;;43.25;27.15;;;;;;;6.71;88.02;99745.31;5035854;28;20503;-85
2023/04/08 04:53:36;;;;;;;49.50;27.38;;;;;;;6.73;86.51;99743.06;5043085;28;20036;-85
2023/04/08 04:56:02;;;;;;;41.97;27.10;;;;;;;6.70;87.69;99744.50;5039616;28;20170;-85
2023/04/08 04:58:27;;;;;;;46.83;28.02;;;;;;;6.76;87.48;99750.81;5035716;28;20021;-86
2023/04/08 05:00:53;;;;;;;43.63;26.35;;;;;;;6.81;87.13;99752.66;5035555;28;20036;-84
2023/04/08 05:03:18;;;;;;;49.08;28.13;;;;;;;6.79;87.76;99763.25;5035742;28;20021;-85
2023/04/08 05:05:44;;;;;;;46.47;27.73;;;;;;;6.73;87.97;99765.28;5031555;28;20033;-85
2023/04/08 05:08:10;;;;;;;39.10;25.50;;;;;;;6.84;87.01;99764.00;5032273;28;20033;-85
2023/04/08 05:10:35;;;;;;;47.33;27.85;;;;;;;6.90;87.29;99761.16;5034779;28;20036;-85
2023/04/08 05:13:01;;;;;;;59.13;29.48;;;;;;;6.88;87.37;99773.41;5035590;28;20024;-84
2023/04/08 05:15:26;;;;;;;49.30;27.27;;;;;;;6.95;87.61;99777.75;5035401;28;20488;-84
2023/04/08 05:17:51;;;;;;;45.65;26.98;;;;;;;6.83;87.36;99754.00;5035611;28;20468;-85
2023/04/08 05:20:17;;;;;;;43.60;28.20;;;;;;;6.85;87.96;99762.88;5048078;28;20044;-85
2023/04/08 05:22:44;;;;;;;47.85;27.48;;;;;;;6.72;88.30;99746.97;5027892;28;20025;-85
2023/04/08 05:25:10;;;;;;;42.92;26.23;;;;;;;6.84;88.02;99766.78;5043302;28;20051;-85
2023/04/08 05:27:36;;;;;;;43.38;26.65;;;;;;;6.94;88.62;99771.38;5024593;28;20416;-85
2023/04/08 05:30:01;;;;;;;43.67;26.25;;;;;;;6.95;88.11;99769.41;5019815;28;20021;-85
2023/04/08 05:32:28;;;;;;;45.03;27.45;;;;;;;6.99;88.03;99781.56;5020562;28;20024;-84
2023/04/08 05:34:54;;;;;;;42.10;25.45;;;;;;;7.07;87.39;99769.75;5045651;28;20052;-85
2023/04/08 05:37:19;;;;;;;41.65;24.45;;;;;;;7.07;86.62;99760.59;5034350;28;20025;-85
2023/04/08 05:39:45;;;;;;;42.33;28.15;;;;;;;7.09;86.90;99766.69;5023067;28;20072;-85
2023/04/08 05:42:12;;;;;;;47.47;29.63;;;;;;;7.28;86.33;99788.88;5035233;28;20097;-84
2023/04/08 05:44:40;;;;;;;94.20;43.10;;;;;;;7.29;86.02;99787.75;5025912;28;20488;-86
2023/04/08 05:47:05;;;;;;;46.25;29.23;;;;;;;7.23;86.46;99783.38;5044285;28;20385;-86
2023/04/08 05:49:32;;;;;;;47.67;29.85;;;;;;;7.37;86.14;99784.28;5017987;28;20091;-85
2023/04/08 05:51:57;;;;;;;49.13;29.58;;;;;;;7.38;86.56;99785.94;5029152;28;20029;-85
2023/04/08 05:54:23;;;;;;;49.55;30.13;;;;;;;7.47;85.99;99785.19;5030395;28;20040;-85
2023/04/08 05:56:48;;;;;;;48.22;29.40;;;;;;;7.39;85.97;99775.59;5048577;28;20039;-86
2023/04/08 05:59:14;;;;;;;45.20;29.17;;;;;;;7.40;85.10;99780.88;5030891;28;20033;-85
2023/04/08 06:01:39;;;;;;;48.13;30.27;;;;;;;7.39;85.42;99773.66;5032239;28;20298;-85
2023/04/08 06:04:05;;;;;;;55.55;31.30;;;;;;;7.49;83.84;99774.59;5032323;28;20400;-84
2023/04/08 06:06:30;;;;;;;106.00;54.25;;;;;;;7.56;83.71;99786.16;5032193;28;20087;-85
2023/04/08 06:08:56;;;;;;;77.40;44.03;;;;;;;7.61;82.68;99776.88;5030973;28;20033;-85
2023/04/08 06:11:21;;;;;;;67.25;34.03;;;;;;;7.85;81.86;99777.50;5044332;28;20849;-87
2023/04/08 06:13:47;;;;;;;86.78;46.42;;;;;;;7.97;80.96;99785.38;5029315;28;20493;-84
2023/04/08 06:16:14;;;;;;;51.53;31.17;;;;;;;7.93;79.71;99770.38;5050457;28;20028;-84
2023/04/08 06:18:40;;;;;;;78.60;41.92;;;;;;;8.26;78.54;99784.19;5026380;28;20031;-84
2023/04/08 06:21:05;;;;;;;47.35;28.50;;;;;;;8.24;77.03;99778.13;5030803;28;20028;-84
2023/04/08 06:23:31;;;;;;;40.70;24.13;;;;;;;8.29;75.45;99791.94;5030358;28;20451;-84
2023/04/08 06:25:57;;;;;;;38.28;25.48;;;;;;;8.33;74.86;99775.41;5048290;28;20039;-84
2023/04/08 06:28:23;;;;;;;42.13;26.58;;;;;;;8.63;73.64;99791.78;5020324;28;20025;-84
2023/04/08 06:30:48;;;;;;;44.53;26.23;;;;;;;8.62;73.22;99792.94;5049178;28;20041;-84
2023/04/08 06:33:14;;;;;;;39.13;23.58;;;;;;;8.60;73.78;99781.28;5029196;28;20029;-84
2023/04/08 06:35:40;;;;;;;39.88;24.33;;;;;;;8.78;71.74;99783.06;5030633;28;20114;-84
2023/04/08 06:38:05;;;;;;;34.42;23.83;;;;;;;8.90;71.72;99774.16;5049384;28;20658;-83
2023/04/08 06:40:31;;;;;;;53.33;30.00;;;;;;;8.88;71.39;99775.59;5031126;28;20025;-84
2023/04/08 06:42:56;;;;;;;37.90;25.75;;;;;;;9.04;70.49;99762.91;5031125;28;20029;-84
2023/04/08 06:45:22;;;;;;;54.50;31.55;;;;;;;9.22;70.78;99774.19;5030588;28;20049;-84
2023/04/08 06:47:47;;;;;;;65.82;27.10;;;;;;;9.20;71.34;99773.69;5029098;28;20404;-84
2023/04/08 06:50:13;;;;;;;48.83;29.67;;;;;;;9.35;71.39;99770.50;5046482;28;20024;-84
2023/04/08 06:52:38;;;;;;;41.50;26.38;;;;;;;9.44;70.83;99762.16;5025521;28;20079;-84
2023/04/08 06:55:04;;;;;;;41.65;25.50;;;;;;;9.66;71.14;99758.50;5031642;28;20048;-85
2023/04/08 06:57:30;;;;;;;45.13;26.83;;;;;;;9.61;70.60;99760.63;5032905;28;20017;-84
2023/04/08 06:59:56;;;;;;;38.75;25.10;;;;;;;9.65;71.54;99768.03;5030721;28;20024;-83
2023/04/08 07:02:21;;;;;;;39.97;26.42;;;;;;;9.71;70.16;99770.69;5045945;28;20040;-84
2023/04/08 07:04:47;;;;;;;44.80;25.58;;;;;;;9.62;69.63;99763.06;5031216;28;20033;-84
2023/04/08 07:07:13;;;;;;;117.55;36.50;;;;;;;9.83;69.42;99765.31;5032989;28;20103;-84
2023/04/08 07:09:40;;;;;;;52.03;28.40;;;;;;;9.85;68.69;99781.75;5049304;28;20474;-84
2023/04/08 07:12:05;;;;;;;46.58;27.38;;;;;;;10.07;68.82;99778.84;5032133;28;20021;-83
2023/04/08 07:14:31;;;;;;;46.50;24.73;;;;;;;9.98;67.01;99778.84;5049416;28;20500;-84
2023/04/08 07:16:56;;;;;;;32.03;23.73;;;;;;;9.90;67.18;99770.44;5046222;28;20064;-87
2023/04/08 07:19:23;;;;;;;45.70;24.15;;;;;;;9.92;67.02;99763.38;5030090;28;20028;-84
2023/04/08 07:21:49;;;;;;;44.90;25.90;;;;;;;9.94;67.70;99775.06;5044449;28;20029;-84
2023/04/08 07:24:14;;;;;;;37.70;24.48;;;;;;;9.93;67.94;99779.00;5032892;28;20025;-85
2023/04/08 07:26:40;;;;;;;44.28;25.85;;;;;;;9.94;69.56;99758.28;5047301;28;20518;-84
2023/04/08 07:29:06;;;;;;;50.53;28.60;;;;;;;10.04;70.71;99773.91;5029206;28;20619;-83
2023/04/08 07:31:32;;;;;;;45.95;27.95;;;;;;;9.99;69.62;99768.50;5029866;28;20032;-83
2023/04/08 07:33:57;;;;;;;48.45;26.85;;;;;;;10.11;69.41;99773.44;5047749;28;20045;-83
2023/04/08 07:36:23;;;;;;;48.97;27.13;;;;;;;9.96;69.27;99772.75;5031331;28;20139;-83
2023/04/08 07:38:48;;;;;;;43.85;27.45;;;;;;;10.05;69.31;99781.16;5034042;28;20025;-85
2023/04/08 07:41:14;;;;;;;44.53;26.63;;;;;;;10.02;69.01;99770.63;5053270;28;20056;-83
2023/04/08 07:43:40;;;;;;;44.70;27.80;;;;;;;10.05;68.76;99763.59;5035592;28;20036;-83
2023/04/08 07:46:06;;;;;;;46.97;28.70;;;;;;;10.05;69.40;99786.75;5035832;28;20488;-83
2023/04/08 07:48:33;;;;;;;48.08;27.80;;;;;;;10.15;67.90;99788.44;5053396;28;20029;-83
2023/04/08 07:51:03;;;;;;;45.25;27.00;;;;;;;10.22;67.00;99790.75;5035820;28;20025;-84
2023/04/08 07:53:29;;;;;;;41.83;25.52;;;;;;;10.28;66.62;99795.03;5035559;28;20036;-83
2023/04/08 07:55:54;;;;;;;39.60;26.20;;;;;;;10.31;66.81;99785.19;5034488;28;20025;-83
2023/04/08 07:58:20;;;;;;;45.47;26.38;;;;;;;10.43;66.06;99782.59;5036427;28;20032;-85
2023/04/08 08:00:45;;;;;;;42.13;27.33;;;;;;;10.48;66.43;99785.22;5035815;28;20032;-85
2023/04/08 08:03:11;;;;;;;44.10;29.10;;;;;;;10.63;65.92;99789.53;5035344;28;20496;-85
2023/04/08 08:05:37;;;;;;;40.03;25.38;;;;;;;10.91;65.11;99794.81;5035902;28;20518;-85
2023/04/08 08:08:02;;;;;;;48.25;29.98;;;;;;;10.87;65.38;99798.63;5035542;28;20384;-84
2023/04/08 08:10:28;;;;;;;59.72;32.88;;;;;;;10.93;64.73;99794.47;5035603;28;20076;-85
2023/04/08 08:12:53;;;;;;;55.90;31.33;;;;;;;11.01;63.68;99798.44;5034338;28;20025;-84
2023/04/08 08:15:19;;;;;;;56.45;34.10;;;;;;;11.11;62.30;99798.09;5035616;28;20020;-85
2023/04/08 08:17:45;;;;;;;37.53;24.98;;;;;;;11.26;61.92;99788.38;5033938;28;20025;-85
2023/04/08 08:20:10;;;;;;;45.85;26.98;;;;;;;11.36;61.81;99779.63;5034811;28;20119;-84
2023/04/08 08:22:38;;;;;;;38.35;25.27;;;;;;;11.19;60.80;99785.25;5050315;28;20086;-84
2023/04/08 08:25:04;;;;;;;51.08;29.17;;;;;;;11.40;61.85;99787.34;5033145;28;20027;-84
2023/04/08 08:27:30;;;;;;;46.38;27.65;;;;;;;11.40;61.55;99781.75;5033856;28;20412;-84
2023/04/08 08:29:55;;;;;;;48.80;28.80;;;;;;;11.52;62.49;99781.88;5033260;28;20025;-82
2023/04/08 08:32:21;;;;;;;42.63;26.50;;;;;;;11.70;62.28;99782.66;5033604;28;20024;-84
2023/04/08 08:34:46;;;;;;;46.75;28.25;;;;;;;12.06;62.22;99778.56;4983622;28;1182246;-84
2023/04/08 08:37:12;;;;;;;36.53;24.70;;;;;;;12.58;60.99;99781.41;5029020;28;20511;-84
2023/04/08 08:39:37;;;;;;;40.47;26.08;;;;;;;12.68;58.12;99782.97;5033956;28;20071;-84
2023/04/08 08:42:03;;;;;;;64.07;25.23;;;;;;;12.62;59.02;99777.56;5036217;28;20033;-84
2023/04/08 08:44:31;;;;;;;34.90;23.50;;;;;;;12.51;58.31;99770.72;5036120;28;20039;-86
2023/04/08 08:46:57;;;;;;;41.17;24.90;;;;;;;12.52;57.75;99785.56;5036228;28;20036;-86
2023/04/08 08:49:23;;;;;;;38.50;24.73;;;;;;;12.25;59.29;99770.88;5034902;28;20025;-86
2023/04/08 08:51:49;;;;;;;43.15;24.08;;;;;;;12.22;59.45;99758.34;5053956;28;20023;-85
2023/04/08 08:54:15;;;;;;;36.80;23.30;;;;;;;12.30;60.78;99768.69;5035513;28;20104;-85
2023/04/08 08:56:42;;;;;;;35.13;23.63;;;;;;;12.24;59.19;99778.47;5035161;28;20033;-86
2023/04/08 08:59:08;;;;;;;36.72;21.80;;;;;;;12.32;57.62;99783.22;5035316;28;20111;-86
2023/04/08 09:01:39;;;;;;;48.88;29.55;;;;;;;12.74;54.68;99776.81;5035890;28;20031;-86
2023/04/08 09:04:11;;;;;;;38.70;25.42;;;;;;;13.16;56.80;99780.75;5053746;28;20571;-86
2023/04/08 09:06:37;;;;;;;34.90;23.48;;;;;;;13.24;54.96;99793.06;5033358;28;20029;-86
2023/04/08 09:09:09;;;;;;;31.48;22.08;;;;;;;13.81;54.63;99788.69;5051300;28;20071;-86
2023/04/08 09:11:36;;;;;;;29.98;21.40;;;;;;;14.07;52.77;99784.72;5035905;28;20040;-86
2023/04/08 09:14:02;;;;;;;28.80;20.58;;;;;;;13.69;51.15;99780.22;5034232;28;20032;-87
2023/04/08 09:16:29;;;;;;;28.95;20.10;;;;;;;13.04;51.81;99761.88;5035787;28;20029;-87
2023/04/08 09:19:08;;;;;;;28.48;20.00;;;;;;;13.67;51.35;99776.94;5035774;28;20025;-87
2023/04/08 09:21:34;;;;;;;31.80;22.35;;;;;;;13.73;52.65;99775.53;5034501;28;20028;-88
2023/04/08 09:23:59;;;;;;;33.42;20.25;;;;;;;13.37;50.45;99760.22;5052592;28;20131;-87
2023/04/08 09:26:26;;;;;;;37.17;20.92;;;;;;;13.71;51.89;99780.69;5033336;28;20066;-86
2023/04/08 09:29:03;;;;;;;28.77;20.42;;;;;;;13.94;50.79;99777.44;5034475;28;20029;-86
2023/04/08 09:31:31;;;;;;;31.73;22.27;;;;;;;14.12;48.93;99773.25;5034963;28;20078;-86
2023/04/08 09:33:59;;;;;;;29.70;20.70;;;;;;;13.86;49.26;99780.00;5033346;28;20133;-88
2023/04/08 09:36:26;;;;;;;37.25;22.90;;;;;;;14.09;50.11;99782.38;5042519;28;20040;-86
2023/04/08 09:38:52;;;;;;;51.30;24.33;;;;;;;14.12;54.28;99776.06;5035346;28;20111;-86
2023/04/08 09:41:24;;;;;;;35.22;22.70;;;;;;;14.20;53.91;99762.22;5052111;28;20140;-86
2023/04/08 09:43:53;;;;;;;35.45;24.08;;;;;;;14.61;52.16;99768.75;5034230;28;20392;-85
2023/04/08 09:46:25;;;;;;;37.15;24.50;;;;;;;14.67;51.41;99767.28;5034097;28;20438;-86
2023/04/08 09:49:01;;;;;;;37.10;25.13;;;;;;;15.07;50.31;99762.03;5030170;28;20040;-86
2023/04/08 09:51:32;;;;;;;33.78;23.90;;;;;;;15.26;49.48;99767.81;5029771;28;20036;-86
2023/04/08 09:54:05;;;;;;;35.97;22.90;;;;;;;15.04;49.27;99763.59;5026187;28;20514;-86
2023/04/08 09:56:42;;;;;;;43.00;28.90;;;;;;;14.98;47.42;99765.84;5033272;28;20036;-87
2023/04/08 09:59:13;;;;;;;49.38;29.10;;;;;;;15.34;48.12;99771.66;5042721;28;20085;-87
2023/04/08 10:01:43;;;;;;;34.63;23.58;;;;;;;15.68;46.39;99765.69;5031244;28;20098;-87
2023/04/08 10:04:13;;;;;;;40.95;25.67;;;;;;;15.58;46.45;99767.06;5049824;28;20033;-87
2023/04/08 10:06:40;;;;;;;36.55;23.88;;;;;;;15.16;48.63;99749.44;5051152;28;20040;-86
2023/04/08 10:09:06;;;;;;;45.38;24.52;;;;;;;14.91;48.52;99762.81;5041477;28;20412;-86
2023/04/08 10:11:33;;;;;;;33.05;23.48;;;;;;;14.44;49.97;99765.00;5019135;28;20032;-85
2023/04/08 10:13:59;;;;;;;34.17;22.95;;;;;;;14.31;49.88;99752.94;5032275;28;20396;-85
2023/04/08 10:16:28;;;;;;;30.40;22.85;;;;;;;14.52;50.81;99759.59;5030721;28;20029;-86
2023/04/08 10:18:55;;;;;;;33.42;23.35;;;;;;;14.48;50.32;99753.03;5048490;28;20044;-85
2023/04/08 10:21:36;;;;;;;36.30;24.02;;;;;;;14.53;50.71;99752.78;5030323;28;20411;-85
2023/04/08 10:24:05;;;;;;;32.83;22.77;;;;;;;14.54;51.17;99746.00;5025924;28;20050;-86
2023/04/08 10:26:42;;;;;;;32.53;21.90;;;;;;;14.11;51.07;99729.38;5032042;28;20044;-85
2023/04/08 10:29:16;;;;;;;31.98;23.10;;;;;;;14.26;50.05;99741.91;5033845;28;20435;-85
2023/04/08 10:31:46;;;;;;;31.85;22.45;;;;;;;14.32;49.77;99742.50;5032494;28;20025;-86
2023/04/08 10:34:26;;;;;;;28.58;21.40;;;;;;;14.63;48.48;99726.97;5032570;28;20056;-86
2023/04/08 10:36:54;;;;;;;37.58;22.90;;;;;;;14.89;47.91;99728.56;5026817;28;20040;-86
2023/04/08 10:39:20;;;;;;;33.25;22.88;;;;;;;14.87;47.84;99725.28;5049437;28;20028;-87
2023/04/08 10:41:47;;;;;;;27.60;21.27;;;;;;;14.76;47.29;99724.94;5030839;28;20044;-86
2023/04/08 10:44:25;;;;;;;33.03;22.08;;;;;;;14.97;46.38;99721.13;5034389;28;20036;-88
2023/04/08 10:46:52;;;;;;;35.60;23.38;;;;;;;15.13;46.46;99721.16;5034177;28;20100;-87
2023/04/08 10:49:18;;;;;;;40.72;23.92;;;;;;;14.62;48.94;99714.06;5034011;28;20507;-86
2023/04/08 10:51:45;;;;;;;35.17;23.85;;;;;;;14.87;50.17;99723.25;5051736;28;20474;-87
2023/04/08 10:54:16;;;;;;;43.95;23.55;;;;;;;14.99;47.26;99721.56;5033376;28;20677;-85
2023/04/08 10:56:49;;;;;;;31.58;23.60;;;;;;;14.78;47.54;99714.19;5034036;28;20029;-85
2023/04/08 10:59:18;;;;;;;32.25;21.70;;;;;;;15.06;47.73;99709.69;5033347;28;20025;-86
2023/04/08 11:01:45;;;;;;;33.17;23.33;;;;;;;15.34;46.39;99701.19;5032579;28;20510;-86
2023/04/08 11:04:15;;;;;;;32.30;22.88;;;;;;;15.29;47.27;99710.72;5030361;28;20098;-85
2023/04/08 11:06:46;;;;;;;31.77;21.23;;;;;;;15.11;48.70;99695.38;5052800;28;20040;-85
2023/04/08 11:09:12;;;;;;;31.95;21.80;;;;;;;14.60;48.53;99703.16;5033283;28;20504;-86
2023/04/08 11:11:40;;;;;;;30.00;20.67;;;;;;;14.80;47.80;99689.28;5048244;28;20103;-85
2023/04/08 11:14:06;;;;;;;39.88;22.52;;;;;;;14.81;47.17;99687.28;5032271;28;20025;-85
2023/04/08 11:16:33;;;;;;;44.83;24.52;;;;;;;15.16;49.98;99686.63;5032335;28;20116;-86
2023/04/08 11:19:01;;;;;;;32.92;21.02;;;;;;;15.12;49.56;99689.34;5029670;28;20483;-86
2023/04/08 11:21:27;;;;;;;30.15;20.70;;;;;;;14.64;48.23;99688.38;5029908;28;20057;-85